Time;durP1;ratioP1;P1;durP2;ratioP2;P2;SDS_P1;SDS_P2;PMS_P1;PMS_P2;Temp;Humidity;BMP_temperature;BMP_pressure;BME280_temperature;BME280_humidity;BME280_pressure;Samples;Min_cycle;Max_cycle;Signal;HPM_P1;HPM_P2
2023/01/08 00:01:39;;;;;;;10.88;7.70;;;6.10;2.80;;;;;;7361725;19;20019;-82
2023/01/08 00:04:12;;;;;;;11.98;7.18;;;6.10;2.30;;;;;;7383561;19;20787;-82
2023/01/08 00:06:42;;;;;;;13.65;9.50;;;6.10;1.80;;;;;;7360843;19;20086;-82
2023/01/08 00:09:15;;;;;;;12.50;8.25;;;6.10;2.20;;;;;;7360539;19;20014;-81
2023/01/08 00:11:47;;;;;;;11.32;7.70;;;6.10;2.00;;;;;;7360632;19;20015;-82
2023/01/08 00:14:17;;;;;;;12.98;8.15;;;6.10;2.30;;;;;;7363534;19;20031;-82
2023/01/08 00:16:47;;;;;;;10.70;6.90;;;6.10;1.30;;;;;;7361680;19;20010;-82
2023/01/08 00:19:17;;;;;;;11.25;7.65;;;6.10;1.50;;;;;;7381393;19;20098;-81
2023/01/08 00:21:47;;;;;;;13.82;8.35;;;6.10;1.10;;;;;;7367509;19;20354;-80
2023/01/08 00:24:20;;;;;;;10.68;7.53;;;6.20;1.00;;;;;;7394289;19;20417;-81
2023/01/08 00:26:49;;;;;;;11.80;7.93;;;6.30;1.00;;;;;;7389289;19;20006;-82
2023/01/08 00:29:19;;;;;;;12.55;7.75;;;6.20;1.00;;;;;;7388260;19;20478;-82
2023/01/08 00:31:49;;;;;;;11.60;7.10;;;6.30;1.00;;;;;;7389591;19;20474;-81
2023/01/08 00:34:19;;;;;;;11.00;7.28;;;6.30;1.00;;;;;;7388274;19;20025;-83
2023/01/08 00:36:49;;;;;;;8.80;6.57;;;6.30;1.00;;;;;;7390057;19;20336;-81
2023/01/08 00:39:21;;;;;;;10.75;7.30;;;6.30;1.00;;;;;;7388286;19;20022;-81
2023/01/08 00:41:51;;;;;;;10.30;7.45;;;6.40;1.00;;;;;;7389605;19;20043;-82
2023/01/08 00:44:21;;;;;;;8.40;6.75;;;6.50;1.00;;;;;;7389821;19;20011;-81
2023/01/08 00:46:50;;;;;;;11.40;7.03;;;6.40;1.00;;;;;;7389491;19;20010;-82
2023/01/08 00:49:20;;;;;;;9.98;7.07;;;6.40;1.00;;;;;;7387843;19;20078;-82
2023/01/08 00:51:50;;;;;;;10.00;6.93;;;6.30;1.00;;;;;;7389405;19;20019;-82
2023/01/08 00:54:22;;;;;;;9.30;6.57;;;6.40;1.00;;;;;;7388829;19;20011;-82
2023/01/08 00:56:52;;;;;;;10.98;7.00;;;6.40;1.00;;;;;;7389013;19;20021;-81
2023/01/08 00:59:22;;;;;;;12.32;6.60;;;6.40;1.00;;;;;;7385651;19;20030;-81
2023/01/08 01:01:55;;;;;;;9.25;6.47;;;6.40;1.00;;;;;;7388818;19;20066;-82
2023/01/08 01:04:26;;;;;;;11.27;6.90;;;6.40;1.00;;;;;;7388603;19;20031;-82
2023/01/08 01:06:56;;;;;;;10.18;6.88;;;6.40;1.00;;;;;;7388938;19;20482;-81
2023/01/08 01:09:29;;;;;;;8.75;6.50;;;6.40;1.00;;;;;;7389634;19;20402;-81
2023/01/08 01:11:59;;;;;;;8.93;6.65;;;6.30;1.00;;;;;;7396176;19;20017;-81
2023/01/08 01:14:29;;;;;;;8.85;6.47;;;6.30;1.00;;;;;;7400653;19;20022;-82
2023/01/08 01:16:58;;;;;;;9.85;6.90;;;6.30;1.00;;;;;;7395901;19;20513;-81
2023/01/08 01:19:28;;;;;;;10.00;6.82;;;6.40;1.00;;;;;;7392139;19;20074;-82
2023/01/08 01:21:58;;;;;;;8.02;6.25;;;6.40;1.00;;;;;;7396083;19;20021;-82
2023/01/08 01:24:31;;;;;;;7.72;6.32;;;6.50;1.00;;;;;;7395774;19;20032;-81
2023/01/08 01:27:01;;;;;;;9.93;6.57;;;6.50;1.00;;;;;;7395899;19;20031;-82
2023/01/08 01:29:30;;;;;;;7.82;6.20;;;6.50;1.00;;;;;;7392137;19;20589;-83
2023/01/08 01:32:00;;;;;;;9.85;6.00;;;6.50;1.00;;;;;;7395561;19;20014;-81
2023/01/08 01:34:30;;;;;;;10.60;6.38;;;6.40;1.00;;;;;;7395267;19;20069;-82
2023/01/08 01:37:00;;;;;;;10.73;6.85;;;6.50;1.00;;;;;;7364919;19;20006;-81
2023/01/08 01:39:32;;;;;;;9.40;6.60;;;6.50;1.00;;;;;;7386555;19;20025;-81
2023/01/08 01:42:02;;;;;;;10.27;6.55;;;6.50;1.00;;;;;;7366650;19;20074;-82
2023/01/08 01:44:39;;;;;;;9.18;6.30;;;6.50;1.00;;;;;;7366466;19;20014;-82
2023/01/08 01:47:16;;;;;;;9.50;6.25;;;6.50;1.00;;;;;;7366703;19;20086;-82
2023/01/08 01:49:54;;;;;;;9.02;6.30;;;6.50;1.00;;;;;;7365122;19;20056;-82
2023/01/08 01:52:26;;;;;;;10.75;6.88;;;6.50;1.00;;;;;;7376809;19;20043;-80
2023/01/08 01:55:01;;;;;;;9.85;6.55;;;6.40;1.00;;;;;;7387764;19;20493;-83
2023/01/08 01:57:32;;;;;;;10.63;6.55;;;6.40;1.00;;;;;;7366441;19;20067;-83
2023/01/08 02:00:04;;;;;;;9.05;6.38;;;6.40;1.00;;;;;;7365169;19;20010;-83
2023/01/08 02:02:34;;;;;;;7.97;6.82;;;6.30;1.00;;;;;;7365671;19;20055;-82
2023/01/08 02:05:04;;;;;;;11.45;7.10;;;6.30;1.00;;;;;;7365707;19;20368;-82
2023/01/08 02:07:40;;;;;;;10.35;6.95;;;6.30;1.00;;;;;;7366488;19;20014;-81
2023/01/08 02:10:18;;;;;;;11.30;7.63;;;6.30;1.00;;;;;;7385264;19;20017;-81
2023/01/08 02:12:54;;;;;;;10.88;7.15;;;6.40;1.00;;;;;;7366311;19;20021;-82
2023/01/08 02:15:28;;;;;;;9.93;7.60;;;6.40;1.00;;;;;;7365060;19;20011;-82
2023/01/08 02:18:07;;;;;;;9.85;7.55;;;6.40;1.00;;;;;;7364279;19;20024;-83
2023/01/08 02:20:39;;;;;;;11.23;7.18;;;6.50;1.00;;;;;;7361851;19;20014;-82
2023/01/08 02:23:21;;;;;;;14.13;7.20;;;6.50;1.00;;;;;;7365734;19;20042;-81
2023/01/08 02:26:26;;;;;;;10.40;6.93;;;6.40;1.00;;;;;;7365270;19;20044;-83
2023/01/08 02:29:00;;;;;;;9.43;7.13;;;6.40;1.00;;;;;;7361757;19;20514;-82
2023/01/08 02:31:32;;;;;;;9.52;7.30;;;6.40;1.00;;;;;;7364685;19;20014;-82
2023/01/08 02:34:02;;;;;;;9.20;7.30;;;6.40;1.00;;;;;;7386695;19;20010;-83
2023/01/08 02:36:41;;;;;;;12.30;7.60;;;6.30;1.00;;;;;;7367328;19;20002;-82
2023/01/08 02:39:23;;;;;;;9.18;7.18;;;6.40;1.00;;;;;;7395614;19;20020;-81
2023/01/08 02:42:11;;;;;;;11.48;7.43;;;6.30;1.00;;;;;;7393547;19;20498;-83
2023/01/08 02:44:53;;;;;;;10.32;7.35;;;6.40;1.00;;;;;;7393172;19;20718;-82
2023/01/08 02:47:30;;;;;;;10.52;7.60;;;6.40;1.00;;;;;;7392727;19;20588;-82
2023/01/08 02:50:08;;;;;;;9.32;7.55;;;6.30;1.00;;;;;;7392039;19;20465;-82
2023/01/08 02:52:44;;;;;;;11.23;7.57;;;6.30;1.00;;;;;;7397292;19;20007;-82
2023/01/08 02:55:14;;;;;;;12.13;7.00;;;6.40;1.00;;;;;;7394264;19;20073;-80
2023/01/08 02:57:47;;;;;;;9.45;6.68;;;6.40;1.00;;;;;;7395352;19;20028;-81
2023/01/08 03:00:17;;;;;;;10.73;7.18;;;6.40;1.00;;;;;;7390246;19;20030;-81
2023/01/08 03:02:50;;;;;;;10.82;7.63;;;6.30;1.00;;;;;;7392798;19;20018;-82
2023/01/08 03:05:25;;;;;;;10.88;7.65;;;6.40;1.00;;;;;;7392114;19;20040;-82
2023/01/08 03:07:55;;;;;;;9.20;7.43;;;6.40;1.00;;;;;;7392202;19;20011;-82
2023/01/08 03:10:30;;;;;;;10.05;6.72;;;6.40;1.00;;;;;;7389596;19;20036;-82
2023/01/08 03:13:05;;;;;;;11.02;7.72;;;6.40;1.00;;;;;;7393069;19;20023;-83
2023/01/08 03:15:39;;;;;;;10.75;7.35;;;6.40;1.00;;;;;;7390686;19;20013;-81
2023/01/08 03:18:13;;;;;;;8.95;6.90;;;6.40;1.00;;;;;;7392335;19;20010;-81
2023/01/08 03:20:43;;;;;;;9.25;7.68;;;6.50;1.00;;;;;;7390273;19;20478;-82
2023/01/08 03:23:16;;;;;;;9.02;7.13;;;6.40;1.00;;;;;;7391711;19;20014;-82
2023/01/08 03:25:48;;;;;;;9.85;6.63;;;6.40;1.00;;;;;;7390847;19;20011;-82
2023/01/08 03:28:29;;;;;;;12.40;6.75;;;6.50;1.00;;;;;;7390686;19;20366;-81
2023/01/08 03:31:00;;;;;;;10.23;7.15;;;6.50;1.00;;;;;;7390538;19;20483;-81
2023/01/08 03:33:33;;;;;;;9.40;7.20;;;6.50;1.00;;;;;;7391289;19;20550;-81
2023/01/08 03:36:06;;;;;;;10.27;6.78;;;6.60;1.00;;;;;;7388896;19;20410;-81
2023/01/08 03:38:41;;;;;;;9.55;7.10;;;6.50;1.00;;;;;;7389583;19;20475;-81
2023/01/08 03:41:14;;;;;;;9.48;7.15;;;6.50;1.00;;;;;;7390673;19;20018;-81
2023/01/08 03:43:47;;;;;;;11.30;7.20;;;6.50;1.00;;;;;;7389642;19;20019;-81
2023/01/08 03:46:23;;;;;;;11.20;6.85;;;6.50;1.00;;;;;;7390320;19;20417;-81
2023/01/08 03:48:53;;;;;;;7.65;6.18;;;6.50;1.00;;;;;;7389437;19;20022;-81
2023/01/08 03:51:23;;;;;;;9.90;7.00;;;6.60;1.00;;;;;;7390529;19;20081;-81
2023/01/08 03:53:56;;;;;;;9.60;6.75;;;6.60;1.00;;;;;;7390038;19;20031;-82
2023/01/08 03:56:25;;;;;;;10.98;6.50;;;6.60;1.00;;;;;;7390792;19;20541;-82
2023/01/08 03:58:58;;;;;;;9.32;6.32;;;6.70;1.00;;;;;;7389190;19;20014;-81
2023/01/08 04:01:28;;;;;;;9.63;6.47;;;6.70;1.00;;;;;;7390104;19;20014;-81
2023/01/08 04:03:58;;;;;;;10.07;6.60;;;6.70;1.00;;;;;;7388909;19;20027;-81
2023/01/08 04:06:27;;;;;;;8.50;6.22;;;6.70;1.00;;;;;;7389493;19;20022;-81
2023/01/08 04:08:57;;;;;;;10.80;6.15;;;6.80;1.00;;;;;;7359648;19;20482;-81
2023/01/08 04:11:27;;;;;;;9.35;6.75;;;6.80;1.00;;;;;;7364330;19;20238;-81
2023/01/08 04:14:00;;;;;;;8.73;6.45;;;6.80;1.00;;;;;;7362984;19;20017;-82
2023/01/08 04:16:30;;;;;;;8.65;6.35;;;6.80;1.00;;;;;;7362728;19;20015;-82
2023/01/08 04:19:00;;;;;;;9.88;6.80;;;6.80;1.00;;;;;;7360660;19;20022;-82
2023/01/08 04:21:30;;;;;;;10.20;6.25;;;6.70;1.00;;;;;;7382361;19;20537;-82
2023/01/08 04:23:59;;;;;;;8.27;6.47;;;6.70;1.00;;;;;;7360956;19;20424;-82
2023/01/08 04:26:29;;;;;;;10.77;6.75;;;6.80;1.00;;;;;;7361969;19;20014;-81
2023/01/08 04:29:04;;;;;;;10.57;6.93;;;6.80;1.00;;;;;;7360949;19;20025;-81
2023/01/08 04:31:34;;;;;;;8.80;6.30;;;6.80;1.00;;;;;;7361573;19;20006;-81
2023/01/08 04:34:04;;;;;;;8.43;6.72;;;6.80;1.00;;;;;;7362005;19;20357;-81
2023/01/08 04:36:34;;;;;;;9.10;6.88;;;6.80;1.00;;;;;;7383154;19;20018;-81
2023/01/08 04:39:04;;;;;;;7.70;6.18;;;6.80;1.00;;;;;;7360360;19;20022;-82
2023/01/08 04:41:34;;;;;;;8.95;6.35;;;6.90;1.00;;;;;;7361410;19;20011;-81
2023/01/08 04:44:06;;;;;;;10.15;7.07;;;6.90;1.00;;;;;;7364106;19;20021;-81
2023/01/08 04:46:36;;;;;;;6.63;5.65;;;6.90;1.00;;;;;;7369015;19;20122;-81
2023/01/08 04:49:06;;;;;;;8.48;6.40;;;6.90;1.00;;;;;;7367137;19;20015;-82
2023/01/08 04:51:36;;;;;;;8.90;6.28;;;6.90;1.00;;;;;;7390860;19;20094;-81
2023/01/08 04:54:08;;;;;;;8.55;6.07;;;7.00;1.00;;;;;;7368893;19;20624;-81
2023/01/08 04:56:38;;;;;;;7.22;5.50;;;7.00;1.00;;;;;;7368155;19;20142;-82
2023/01/08 04:59:10;;;;;;;8.45;5.72;;;7.00;1.00;;;;;;7367386;19;20478;-81
2023/01/08 05:01:40;;;;;;;6.80;4.90;;;7.10;1.00;;;;;;7369109;19;20014;-81
2023/01/08 05:04:12;;;;;;;6.05;4.05;;;7.30;1.00;;;;;;7368985;19;20017;-82
2023/01/08 05:06:42;;;;;;;7.45;3.97;;;7.70;1.00;;;;;;7390500;19;20049;-82
2023/01/08 05:09:12;;;;;;;4.30;3.00;;;8.00;1.00;;;;;;7375065;19;20510;-82
2023/01/08 05:11:42;;;;;;;5.13;2.95;;;8.30;1.00;;;;;;7396535;19;20070;-82
2023/01/08 05:14:15;;;;;;;3.90;2.80;;;8.50;1.00;;;;;;7399696;19;20502;-82
2023/01/08 05:16:44;;;;;;;3.40;2.60;;;8.70;1.00;;;;;;7396530;19;20007;-83
2023/01/08 05:19:14;;;;;;;4.75;3.08;;;8.70;1.00;;;;;;7393312;19;20022;-81
2023/01/08 05:21:44;;;;;;;3.65;2.78;;;8.80;1.00;;;;;;7396911;19;20021;-82
2023/01/08 05:24:14;;;;;;;6.60;2.88;;;8.80;1.00;;;;;;7396018;19;20023;-81
2023/01/08 05:26:44;;;;;;;7.15;2.80;;;8.80;1.00;;;;;;7395808;19;20015;-82
2023/01/08 05:29:16;;;;;;;3.85;2.58;;;9.00;1.00;;;;;;7394324;19;20019;-81
2023/01/08 05:31:47;;;;;;;3.78;2.30;;;9.00;1.00;;;;;;7396126;19;20018;-82
2023/01/08 05:34:16;;;;;;;3.65;2.45;;;9.00;1.00;;;;;;7394314;19;20512;-81
2023/01/08 05:36:46;;;;;;;3.22;2.40;;;9.10;1.00;;;;;;7394227;19;20028;-81
2023/01/08 05:39:16;;;;;;;3.92;2.38;;;9.10;1.00;;;;;;7395464;19;20018;-81
2023/01/08 05:41:46;;;;;;;4.50;2.83;;;9.10;1.00;;;;;;7392102;19;20017;-82
2023/01/08 05:44:18;;;;;;;3.70;2.38;;;9.00;1.00;;;;;;7394567;19;20014;-81
2023/01/08 05:46:50;;;;;;;3.22;2.15;;;8.90;1.00;;;;;;7393826;19;20479;-82
2023/01/08 05:49:20;;;;;;;3.47;1.90;;;8.90;1.00;;;;;;7393322;19;20023;-82
2023/01/08 05:51:50;;;;;;;3.67;1.75;;;8.90;1.00;;;;;;7395123;19;20089;-81
2023/01/08 05:54:20;;;;;;;3.53;1.65;;;9.00;1.00;;;;;;7394419;19;20463;-79
2023/01/08 05:56:50;;;;;;;6.28;1.90;;;9.00;1.00;;;;;;7391097;19;20500;-81
2023/01/08 05:59:22;;;;;;;3.00;1.80;;;8.90;1.00;;;;;;7393333;19;20410;-79
2023/01/08 06:01:52;;;;;;;2.50;1.75;;;8.90;1.00;;;;;;7392792;19;20010;-80
2023/01/08 06:04:22;;;;;;;2.80;1.60;;;8.90;1.00;;;;;;7395014;19;20010;-78
2023/01/08 06:06:52;;;;;;;2.08;1.80;;;8.80;1.00;;;;;;7394581;19;20011;-78
2023/01/08 06:09:22;;;;;;;1.88;1.55;;;8.80;1.00;;;;;;7367082;19;20007;-78
2023/01/08 06:11:51;;;;;;;2.20;1.50;;;8.80;1.00;;;;;;7390913;19;20014;-78
2023/01/08 06:14:24;;;;;;;3.08;1.45;;;8.80;1.00;;;;;;7392574;19;20487;-78
2023/01/08 06:16:54;;;;;;;1.48;1.30;;;8.80;1.00;;;;;;7365192;19;20504;-78
2023/01/08 06:19:24;;;;;;;2.10;1.40;;;8.80;1.00;;;;;;7363170;19;20022;-79
2023/01/08 06:21:54;;;;;;;2.25;1.33;;;8.80;1.00;;;;;;7365545;19;20006;-79
2023/01/08 06:24:24;;;;;;;1.40;1.10;;;8.90;1.00;;;;;;7366723;19;20021;-79
2023/01/08 06:26:54;;;;;;;2.47;1.50;;;8.90;1.00;;;;;;7365082;19;20451;-80
2023/01/08 06:29:26;;;;;;;1.60;1.30;;;8.90;1.00;;;;;;7386778;19;20014;-78
2023/01/08 06:31:56;;;;;;;2.42;1.35;;;8.90;1.00;;;;;;7366551;19;20035;-80
2023/01/08 06:34:26;;;;;;;2.25;1.10;;;8.90;1.00;;;;;;7365267;19;20022;-80
2023/01/08 06:36:56;;;;;;;1.70;1.30;;;8.90;1.00;;;;;;7365823;19;20555;-80
2023/01/08 06:39:25;;;;;;;1.55;1.23;;;9.00;1.00;;;;;;7364800;19;20014;-80
2023/01/08 06:41:55;;;;;;;2.55;1.00;;;8.90;1.00;;;;;;7363410;19;20019;-81
2023/01/08 06:44:28;;;;;;;1.10;0.90;;;8.90;1.00;;;;;;7386585;19;20015;-80
2023/01/08 06:46:58;;;;;;;1.65;1.25;;;9.10;1.00;;;;;;7364425;19;20014;-80
2023/01/08 06:49:28;;;;;;;1.00;0.80;;;9.10;1.00;;;;;;7363673;19;20415;-81
2023/01/08 06:51:58;;;;;;;1.98;0.80;;;9.10;1.00;;;;;;7365477;19;20126;-81
2023/01/08 06:54:28;;;;;;;1.80;1.00;;;9.10;1.00;;;;;;7365435;19;20025;-80
2023/01/08 06:56:58;;;;;;;1.00;0.90;;;9.10;1.00;;;;;;7364707;19;20057;-80
2023/01/08 06:59:30;;;;;;;1.00;0.80;;;9.20;1.00;;;;;;7384807;19;20021;-81
2023/01/08 07:02:00;;;;;;;2.17;1.50;;;9.10;1.00;;;;;;7363534;19;20017;-81
2023/01/08 07:04:30;;;;;;;2.00;1.52;;;9.10;1.00;;;;;;7365123;19;20011;-82
2023/01/08 07:07:00;;;;;;;1.27;0.80;;;9.10;1.00;;;;;;7365844;19;20018;-82
2023/01/08 07:09:30;;;;;;;1.15;0.95;;;9.20;1.00;;;;;;7365770;19;20015;-81
2023/01/08 07:12:00;;;;;;;1.27;0.82;;;9.10;1.00;;;;;;7391024;19;20011;-82
2023/01/08 07:14:32;;;;;;;1.05;0.70;;;9.10;1.00;;;;;;7394703;19;20474;-81
2023/01/08 07:17:02;;;;;;;1.67;0.80;;;9.10;1.00;;;;;;7391130;19;20006;-81
2023/01/08 07:19:32;;;;;;;2.78;1.02;;;9.10;1.00;;;;;;7389141;19;20498;-83
2023/01/08 07:22:02;;;;;;;1.40;0.88;;;9.20;1.00;;;;;;7389398;19;20018;-82
2023/01/08 07:24:32;;;;;;;1.25;0.82;;;9.30;1.00;;;;;;7392263;19;20481;-82
2023/01/08 07:27:01;;;;;;;1.00;0.80;;;9.20;1.00;;;;;;7390769;19;20021;-82
2023/01/08 07:29:34;;;;;;;1.15;0.88;;;9.20;1.00;;;;;;7389284;19;20504;-83
2023/01/08 07:32:04;;;;;;;1.35;0.85;;;9.20;1.00;;;;;;7390315;19;20187;-82
2023/01/08 07:34:34;;;;;;;1.00;0.80;;;9.20;1.00;;;;;;7389988;19;20374;-82
2023/01/08 07:37:06;;;;;;;2.65;0.80;;;9.30;1.00;;;;;;7390153;19;20025;-82
2023/01/08 07:39:36;;;;;;;1.67;0.77;;;9.30;1.00;;;;;;7388733;19;20011;-81
2023/01/08 07:42:06;;;;;;;0.88;0.68;;;9.30;1.00;;;;;;7389033;19;20019;-81
2023/01/08 07:44:39;;;;;;;0.60;0.57;;;9.30;1.00;;;;;;7390513;19;20023;-82
2023/01/08 07:47:09;;;;;;;1.15;0.80;;;9.30;1.00;;;;;;7389645;19;20070;-80
2023/01/08 07:49:39;;;;;;;1.45;1.02;;;9.30;1.00;;;;;;7388254;19;20007;-81
2023/01/08 07:52:09;;;;;;;1.17;0.70;;;9.30;1.00;;;;;;7391663;19;20023;-82
2023/01/08 07:54:39;;;;;;;1.63;0.82;;;9.20;1.00;;;;;;7389513;19;20086;-82
2023/01/08 07:57:09;;;;;;;0.90;0.57;;;9.20;1.00;;;;;;7389482;19;20074;-81
2023/01/08 07:59:41;;;;;;;1.00;0.68;;;9.20;1.00;;;;;;7386933;19;20018;-81
2023/01/08 08:02:12;;;;;;;1.00;0.70;;;9.20;1.00;;;;;;7388925;19;20021;-81
2023/01/08 08:04:42;;;;;;;1.17;0.90;;;9.10;1.00;;;;;;7389228;19;20496;-81
2023/01/08 08:07:12;;;;;;;1.80;1.05;;;9.10;1.00;;;;;;7388866;19;20050;-82
2023/01/08 08:09:42;;;;;;;2.78;0.90;;;9.10;1.00;;;;;;7387074;19;20019;-80
2023/01/08 08:12:13;;;;;;;1.38;0.77;;;9.00;1.00;;;;;;7388834;19;20014;-80
2023/01/08 08:14:45;;;;;;;1.30;1.05;;;9.00;1.00;;;;;;7393296;19;20018;-79
2023/01/08 08:17:15;;;;;;;1.77;1.23;;;9.00;1.00;;;;;;7388499;19;20046;-80
2023/01/08 08:19:45;;;;;;;1.13;0.85;;;9.00;1.00;;;;;;7385483;19;20026;-80
2023/01/08 08:22:15;;;;;;;0.90;0.70;;;9.00;1.00;;;;;;7388907;19;20086;-79
2023/01/08 08:24:45;;;;;;;0.95;0.70;;;9.00;1.00;;;;;;7387892;19;20026;-79
2023/01/08 08:27:15;;;;;;;2.55;1.13;;;9.00;1.00;;;;;;7388187;19;20014;-80
2023/01/08 08:29:47;;;;;;;1.15;0.90;;;8.90;1.00;;;;;;7386379;19;20018;-79
2023/01/08 08:32:17;;;;;;;0.70;0.60;;;8.90;1.90;;;;;;7390258;19;20486;-79
2023/01/08 08:34:49;;;;;;;1.08;0.98;;;8.90;1.10;;;;;;7361555;19;20010;-81
2023/01/08 08:37:19;;;;;;;2.17;1.00;;;8.90;1.70;;;;;;7386830;19;20089;-78
2023/01/08 08:39:49;;;;;;;1.70;0.95;;;8.90;1.40;;;;;;7358541;19;20049;-79
2023/01/08 08:42:19;;;;;;;0.95;0.70;;;8.90;1.60;;;;;;7358387;19;20018;-79
2023/01/08 08:44:51;;;;;;;1.00;0.80;;;8.90;2.00;;;;;;7358890;19;20014;-78
2023/01/08 08:47:21;;;;;;;1.85;0.95;;;8.80;2.80;;;;;;7358386;19;20010;-79
2023/01/08 08:49:51;;;;;;;1.80;0.80;;;8.90;2.50;;;;;;7357570;19;20022;-79
2023/01/08 08:52:21;;;;;;;1.00;0.80;;;8.90;2.90;;;;;;7382201;19;20019;-79
2023/01/08 08:54:51;;;;;;;2.78;1.02;;;8.80;2.80;;;;;;7358532;19;20019;-79
2023/01/08 08:57:20;;;;;;;2.08;1.17;;;8.90;2.90;;;;;;7359728;19;20021;-79
2023/01/08 08:59:53;;;;;;;1.33;0.90;;;8.90;2.90;;;;;;7357261;19;20032;-78
2023/01/08 09:02:23;;;;;;;1.58;0.90;;;8.90;2.90;;;;;;7360013;19;20015;-79
2023/01/08 09:04:53;;;;;;;1.70;1.13;;;8.90;3.30;;;;;;7359986;19;20015;-79
2023/01/08 09:07:23;;;;;;;1.02;0.73;;;8.80;3.50;;;;;;7381220;19;20003;-79
2023/01/08 09:09:53;;;;;;;1.30;0.80;;;8.90;2.90;;;;;;7357698;19;20011;-79
2023/01/08 09:12:22;;;;;;;1.73;1.00;;;8.90;2.70;;;;;;7360042;19;20034;-79
2023/01/08 09:14:55;;;;;;;1.40;0.85;;;8.90;1.70;;;;;;7361794;19;20059;-78
2023/01/08 09:17:26;;;;;;;1.92;0.98;;;9.00;1.20;;;;;;7359302;19;20525;-81
2023/01/08 09:19:56;;;;;;;1.52;0.90;;;8.90;1.50;;;;;;7357654;19;20015;-80
2023/01/08 09:22:26;;;;;;;1.45;0.95;;;9.00;1.00;;;;;;7380328;19;20015;-79
2023/01/08 09:24:56;;;;;;;1.48;0.88;;;9.00;1.00;;;;;;7358997;19;20074;-79
2023/01/08 09:27:26;;;;;;;2.25;0.95;;;9.00;1.00;;;;;;7359175;19;20014;-79
2023/01/08 09:29:59;;;;;;;1.90;1.05;;;9.10;1.00;;;;;;7360641;19;20019;-79
2023/01/08 09:32:29;;;;;;;1.38;0.90;;;9.10;1.00;;;;;;7368935;19;20014;-80
2023/01/08 09:34:58;;;;;;;1.67;0.88;;;9.10;1.00;;;;;;7369165;19;20017;-82
2023/01/08 09:37:28;;;;;;;1.30;0.90;;;9.10;1.00;;;;;;7393208;19;20014;-81
2023/01/08 09:39:58;;;;;;;2.10;0.93;;;9.20;1.00;;;;;;7391076;19;20010;-80
2023/01/08 09:42:33;;;;;;;1.48;0.90;;;9.20;1.00;;;;;;7394143;19;20018;-80
2023/01/08 09:45:07;;;;;;;1.77;1.00;;;9.20;1.00;;;;;;7394362;19;20015;-81
2023/01/08 09:47:40;;;;;;;1.00;0.75;;;9.20;1.00;;;;;;7395396;19;20015;-80
2023/01/08 09:50:15;;;;;;;1.05;0.80;;;9.20;1.00;;;;;;7392804;19;20050;-82
2023/01/08 09:52:45;;;;;;;1.33;0.70;;;9.20;1.00;;;;;;7394442;19;20022;-81
2023/01/08 09:55:17;;;;;;;2.05;1.20;;;9.20;1.00;;;;;;7394181;19;20010;-82
2023/01/08 09:57:47;;;;;;;1.40;0.90;;;9.20;1.00;;;;;;7393765;19;20022;-83
2023/01/08 10:00:25;;;;;;;1.35;0.80;;;9.30;1.00;;;;;;7391924;19;20021;-83
2023/01/08 10:02:56;;;;;;;1.52;0.70;;;9.30;1.00;;;;;;7395451;19;20082;-81
2023/01/08 10:05:28;;;;;;;1.20;0.90;;;9.30;1.00;;;;;;7394799;19;20038;-81
2023/01/08 10:07:58;;;;;;;2.03;1.00;;;9.30;1.00;;;;;;7393764;19;20014;-82
2023/01/08 10:10:31;;;;;;;2.55;1.00;;;9.40;1.00;;;;;;7392452;19;20021;-81
2023/01/08 10:13:01;;;;;;;1.15;0.82;;;9.40;1.00;;;;;;7393578;19;20005;-81
2023/01/08 10:15:34;;;;;;;1.15;0.70;;;9.40;1.00;;;;;;7394526;19;20324;-82
2023/01/08 10:18:07;;;;;;;1.38;1.00;;;9.40;1.00;;;;;;7392658;19;20007;-82
2023/01/08 10:20:38;;;;;;;2.05;0.90;;;9.50;1.00;;;;;;7389642;19;20018;-83
2023/01/08 10:23:13;;;;;;;1.02;0.70;;;9.50;1.00;;;;;;7394308;19;20027;-82
2023/01/08 10:25:55;;;;;;;3.45;0.95;;;9.50;1.00;;;;;;7392748;19;20010;-83
2023/01/08 10:28:27;;;;;;;1.23;0.63;;;9.60;1.00;;;;;;7391972;19;20106;-82
2023/01/08 10:31:05;;;;;;;1.45;0.93;;;9.60;1.00;;;;;;7392304;19;20025;-82
2023/01/08 10:33:42;;;;;;;1.25;0.85;;;9.60;1.00;;;;;;7393959;19;20017;-82
2023/01/08 10:36:15;;;;;;;2.30;0.70;;;9.60;1.00;;;;;;7391614;19;20502;-83
2023/01/08 10:38:53;;;;;;;0.80;0.70;;;9.70;1.00;;;;;;7393080;19;20015;-81
2023/01/08 10:41:23;;;;;;;4.53;1.40;;;9.70;1.00;;;;;;7391475;19;20144;-82
2023/01/08 10:43:56;;;;;;;1.58;0.88;;;9.70;1.00;;;;;;7392408;19;20052;-84
2023/01/08 10:46:34;;;;;;;1.75;0.90;;;9.70;1.00;;;;;;7392455;19;20011;-81
2023/01/08 10:49:06;;;;;;;2.05;1.15;;;9.80;1.00;;;;;;7365958;19;20054;-81
2023/01/08 10:51:36;;;;;;;1.98;1.15;;;9.80;1.00;;;;;;7363789;19;20018;-81
2023/01/08 10:54:24;;;;;;;2.78;1.10;;;9.90;1.00;;;;;;7363929;19;20086;-82
2023/01/08 10:56:55;;;;;;;3.08;1.20;;;9.90;1.00;;;;;;7364300;19;20020;-81
2023/01/08 10:59:29;;;;;;;4.95;1.33;;;9.80;1.00;;;;;;7364394;19;20021;-83
2023/01/08 11:02:02;;;;;;;1.20;0.82;;;9.90;1.00;;;;;;7396787;19;20080;-82
2023/01/08 11:04:35;;;;;;;1.50;1.08;;;9.90;1.00;;;;;;7366826;19;20018;-82
2023/01/08 11:07:08;;;;;;;1.50;0.80;;;9.90;1.00;;;;;;7362231;19;20061;-83
2023/01/08 11:09:43;;;;;;;2.20;1.05;;;9.90;1.00;;;;;;7362449;19;20050;-81
2023/01/08 11:12:32;;;;;;;2.00;1.00;;;10.00;1.00;;;;;;7363906;19;20011;-82
2023/01/08 11:15:02;;;;;;;1.52;0.82;;;10.00;1.00;;;;;;7364432;19;20067;-81
2023/01/08 11:17:35;;;;;;;1.00;0.90;;;10.00;1.00;;;;;;7363750;19;20032;-82
2023/01/08 11:20:11;;;;;;;1.35;0.90;;;10.10;1.00;;;;;;7384109;19;20015;-82
2023/01/08 11:22:41;;;;;;;1.70;0.80;;;10.10;1.00;;;;;;7363522;19;20029;-81
2023/01/08 11:25:14;;;;;;;3.22;0.80;;;10.10;1.00;;;;;;7361909;19;20018;-82
2023/01/08 11:27:46;;;;;;;0.93;0.77;;;10.10;1.00;;;;;;7363949;19;20015;-83
2023/01/08 11:30:20;;;;;;;1.10;0.85;;;10.10;1.00;;;;;;7361570;19;20018;-82
2023/01/08 11:32:59;;;;;;;1.85;1.17;;;10.10;1.00;;;;;;7363534;19;20539;-82
2023/01/08 11:35:32;;;;;;;2.45;1.10;;;10.20;1.00;;;;;;7364825;19;20463;-83
2023/01/08 11:38:03;;;;;;;1.17;0.80;;;10.20;1.00;;;;;;7387713;19;20041;-83
2023/01/08 11:40:43;;;;;;;1.52;0.82;;;10.20;1.00;;;;;;7363696;19;20057;-81
2023/01/08 11:43:26;;;;;;;1.63;0.77;;;10.30;1.00;;;;;;7363746;19;20011;-82
2023/01/08 11:46:09;;;;;;;1.20;0.70;;;10.40;1.00;;;;;;7364158;19;20011;-82
2023/01/08 11:48:54;;;;;;;0.80;0.60;;;10.30;1.00;;;;;;7365188;19;20018;-83
2023/01/08 11:51:48;;;;;;;1.45;0.80;;;10.40;1.00;;;;;;7392939;19;20006;-82
2023/01/08 11:54:33;;;;;;;1.50;0.95;;;10.40;1.00;;;;;;7389397;19;20355;-82
2023/01/08 11:57:15;;;;;;;0.80;0.80;;;10.50;1.00;;;;;;7390117;19;20480;-83
2023/01/08 12:00:03;;;;;;;2.72;0.80;;;10.50;1.00;;;;;;7387913;19;20007;-81
2023/01/08 12:02:52;;;;;;;0.90;0.60;;;10.60;1.00;;;;;;7388426;19;20023;-81
2023/01/08 12:05:31;;;;;;;0.80;0.60;;;10.50;1.00;;;;;;7386680;19;20022;-82
2023/01/08 12:08:05;;;;;;;1.10;0.85;;;10.50;1.00;;;;;;7389630;19;20078;-81
2023/01/08 12:10:52;;;;;;;2.13;1.23;;;10.50;1.00;;;;;;7386062;19;20029;-82
2023/01/08 12:13:37;;;;;;;1.48;1.10;;;10.50;1.00;;;;;;7390952;19;20328;-82
2023/01/08 12:16:20;;;;;;;1.23;0.80;;;10.50;1.00;;;;;;7387810;19;20022;-83
2023/01/08 12:19:04;;;;;;;0.80;0.63;;;10.40;1.00;;;;;;7387427;19;20168;-81
2023/01/08 12:21:48;;;;;;;1.02;0.57;;;10.40;1.00;;;;;;7388272;19;20070;-82
2023/01/08 12:24:29;;;;;;;2.00;0.73;;;10.40;1.00;;;;;;7387413;19;20040;-81
2023/01/08 12:27:06;;;;;;;0.95;0.80;;;10.40;1.00;;;;;;7387660;19;20019;-82
2023/01/08 12:29:58;;;;;;;0.73;0.60;;;10.40;1.00;;;;;;7385611;19;20385;-81
2023/01/08 12:32:36;;;;;;;0.80;0.55;;;10.50;1.00;;;;;;7388651;19;20023;-81
2023/01/08 12:35:12;;;;;;;0.85;0.60;;;10.50;1.00;;;;;;7387529;19;20090;-82
2023/01/08 12:37:51;;;;;;;3.25;0.98;;;10.40;1.00;;;;;;7386591;19;20413;-83
2023/01/08 12:40:26;;;;;;;4.78;1.02;;;10.40;1.00;;;;;;7384757;19;20082;-81
2023/01/08 12:42:59;;;;;;;0.70;0.60;;;10.50;1.00;;;;;;7386548;19;20105;-82
2023/01/08 12:45:34;;;;;;;1.00;0.57;;;10.50;1.00;;;;;;7386718;19;20011;-82
2023/01/08 12:48:09;;;;;;;1.63;0.95;;;10.50;1.00;;;;;;7388062;19;20029;-83
2023/01/08 12:50:51;;;;;;;1.30;0.98;;;10.50;1.00;;;;;;7386423;19;20519;-83
2023/01/08 12:53:31;;;;;;;1.08;0.80;;;10.50;1.00;;;;;;7388133;19;20478;-80
2023/01/08 12:56:06;;;;;;;1.35;0.90;;;10.50;1.00;;;;;;7387834;19;20018;-83
2023/01/08 12:58:51;;;;;;;1.30;1.10;;;10.50;1.00;;;;;;7387316;19;20014;-82
2023/01/08 13:01:31;;;;;;;2.25;0.90;;;10.50;1.00;;;;;;7386027;19;20096;-81
2023/01/08 13:04:03;;;;;;;1.10;0.80;;;10.50;1.00;;;;;;7387971;19;20018;-82
2023/01/08 13:06:33;;;;;;;1.05;0.70;;;10.50;1.00;;;;;;7395634;19;20040;-82
2023/01/08 13:09:06;;;;;;;2.47;0.80;;;10.50;1.00;;;;;;7392433;19;20022;-81
2023/01/08 13:11:41;;;;;;;1.00;0.70;;;10.50;1.00;;;;;;7360030;19;20033;-82
2023/01/08 13:14:13;;;;;;;1.55;1.08;;;10.50;1.00;;;;;;7367778;19;20014;-82
2023/01/08 13:16:46;;;;;;;1.17;1.00;;;10.50;1.00;;;;;;7366134;19;20019;-82
2023/01/08 13:19:28;;;;;;;0.75;0.73;;;10.50;1.00;;;;;;7365254;19;20073;-82
2023/01/08 13:22:00;;;;;;;1.35;0.80;;;10.50;1.00;;;;;;7365814;19;20018;-81
2023/01/08 13:24:39;;;;;;;1.50;1.05;;;10.40;1.00;;;;;;7386975;19;20007;-80
2023/01/08 13:27:28;;;;;;;2.95;1.10;;;10.40;1.00;;;;;;7365882;19;20039;-81
2023/01/08 13:30:00;;;;;;;2.67;1.30;;;10.40;1.00;;;;;;7363922;19;20462;-81
2023/01/08 13:32:44;;;;;;;1.70;0.70;;;10.50;1.00;;;;;;7365290;19;20037;-80